createdAt,value
2018-10-01T00:01:53.233Z,100032.80
2018-10-01T00:04:20.992Z,100030.16
2018-10-01T00:06:48.558Z,100028.08
2018-10-01T00:09:16.102Z,100032.58
2018-10-01T00:11:43.620Z,100029.64
2018-10-01T00:14:11.090Z,100026.21
2018-10-01T00:16:38.837Z,100034.22
2018-10-01T00:19:11.678Z,100034.38
2018-10-01T00:22:48.569Z,100036.31
2018-10-01T00:25:16.342Z,100030.02
2018-10-01T00:27:44.036Z,100032.36
2018-10-01T00:30:11.524Z,100034.67
2018-10-01T00:32:38.993Z,100040.60
2018-10-01T00:35:06.805Z,100040.75
2018-10-01T00:37:34.306Z,100039.48
2018-10-01T00:40:01.748Z,100038.69
2018-10-01T00:42:32.217Z,100039.22
2018-10-01T00:44:59.713Z,100036.27
2018-10-01T00:47:27.285Z,100039.06
2018-10-01T00:49:54.862Z,100041.38
2018-10-01T00:52:22.370Z,100038.88
2018-10-01T00:54:49.819Z,100042.92
2018-10-01T00:57:17.493Z,100042.62
2018-10-01T00:59:45.040Z,100044.02
2018-10-01T01:02:12.559Z,100043.79
2018-10-01T01:04:40.484Z,100037.33
2018-10-01T01:07:08.195Z,100036.16
2018-10-01T01:09:36.352Z,100046.39
2018-10-01T01:12:04.656Z,100037.75
2018-10-01T01:14:32.177Z,100033.94
2018-10-01T01:16:59.690Z,100039.78
2018-10-01T01:19:27.469Z,100038.98
2018-10-01T01:21:54.897Z,100046.98
2018-10-01T01:24:22.470Z,100047.13
2018-10-01T01:26:50.338Z,100056.08
2018-10-01T01:29:17.899Z,100064.91
2018-10-01T01:31:45.360Z,100067.24
2018-10-01T01:34:13.347Z,100060.33
2018-10-01T01:36:40.859Z,100064.81
2018-10-01T01:39:09.339Z,100067.98
2018-10-01T01:41:37.042Z,100072.89
2018-10-01T01:44:04.523Z,100071.33
2018-10-01T01:46:32.166Z,100077.45
2018-10-01T01:48:59.941Z,100075.81
2018-10-01T01:51:27.454Z,100072.38
2018-10-01T01:53:54.994Z,100079.05
2018-10-01T01:56:22.680Z,100081.31
2018-10-01T01:58:50.266Z,100084.93
2018-10-01T02:01:17.769Z,100084.55
2018-10-01T02:03:45.596Z,100089.97
2018-10-01T02:06:13.459Z,100089.59
2018-10-01T02:08:40.932Z,100089.73
2018-10-01T02:11:08.668Z,100088.48
2018-10-01T02:13:36.219Z,100095.16
2018-10-01T02:16:03.663Z,100092.58
2018-10-01T02:18:31.390Z,100094.42
2018-10-01T02:20:58.876Z,100053.89
2018-10-01T02:23:26.374Z,100095.43
2018-10-01T02:25:54.324Z,100100.71
2018-10-01T02:28:21.852Z,100094.70
2018-10-01T02:30:49.307Z,100096.47
2018-10-01T02:33:17.067Z,100102.31
2018-10-01T02:35:44.596Z,100101.06
2018-10-01T02:38:12.699Z,100101.09
2018-10-01T02:40:40.580Z,100102.48
2018-10-01T02:43:08.169Z,100097.76
2018-10-01T02:45:35.669Z,100102.69
2018-10-01T02:48:03.355Z,100107.20
2018-10-01T02:50:30.858Z,100110.30
2018-10-01T02:53:03.938Z,100109.98
2018-10-01T02:55:31.753Z,100108.24
2018-10-01T02:57:59.236Z,100109.70
2018-10-01T03:00:26.797Z,100112.41
2018-10-01T03:02:54.578Z,100109.38
2018-10-01T03:05:22.064Z,100109.45
2018-10-01T03:07:49.810Z,100112.16
2018-10-01T03:10:17.608Z,100117.89
2018-10-01T03:12:45.082Z,100119.75
2018-10-01T03:15:12.606Z,100119.82
2018-10-01T03:17:40.471Z,100115.45
2018-10-01T03:20:08.090Z,100121.73
2018-10-01T03:22:35.541Z,100116.97
2018-10-01T03:25:06.089Z,100118.35
2018-10-01T03:27:33.553Z,100119.67
2018-10-01T03:30:01.062Z,100117.55
2018-10-01T03:32:28.851Z,100123.77
2018-10-01T03:34:56.337Z,100119.00
2018-10-01T03:37:23.911Z,100126.08
2018-10-01T03:39:51.894Z,100131.49
2018-10-01T03:42:19.353Z,100136.34
2018-10-01T03:44:46.888Z,100136.48
2018-10-01T03:47:14.489Z,100138.34
2018-10-01T03:49:41.911Z,100143.75
2018-10-01T03:52:09.451Z,100137.61
2018-10-01T03:54:37.089Z,100144.27
2018-10-01T03:57:04.635Z,100150.41
2018-10-01T03:59:32.149Z,100145.59
2018-10-01T04:01:59.909Z,100146.91
2018-10-01T04:04:27.340Z,100146.52
2018-10-01T04:06:54.775Z,100149.16
2018-10-01T04:09:22.890Z,100146.59
2018-10-01T04:11:50.406Z,100157.52
2018-10-01T04:14:17.941Z,100157.14
2018-10-01T04:16:46.577Z,100161.61
2018-10-01T04:19:14.031Z,100151.63
2018-10-01T04:21:41.595Z,100166.14
2018-10-01T04:24:09.221Z,100173.66
2018-10-01T04:26:36.705Z,100179.39
2018-10-01T04:29:04.199Z,100183.41
2018-10-01T04:31:31.876Z,100190.00
2018-10-01T04:33:59.346Z,100182.57
2018-10-01T04:36:26.913Z,100183.02
2018-10-01T04:38:54.585Z,100191.83
2018-10-01T04:41:22.135Z,100195.34
2018-10-01T04:43:49.602Z,100193.15
2018-10-01T04:46:17.294Z,100201.12
2018-10-01T04:48:44.779Z,100200.29
2018-10-01T04:51:12.299Z,100201.61
2018-10-01T04:53:40.110Z,100202.98
2018-10-01T04:56:07.664Z,100213.53
2018-10-01T04:58:35.261Z,100214.91
2018-10-01T05:01:03.887Z,100212.79
2018-10-01T05:03:31.439Z,100216.74
2018-10-01T05:05:59.015Z,100215.09
2018-10-01T05:08:26.708Z,100216.48
2018-10-01T05:10:54.563Z,100216.55
2018-10-01T05:13:22.145Z,100224.90
2018-10-01T05:15:50.184Z,100223.58
2018-10-01T05:18:17.643Z,100224.96
2018-10-01T05:20:45.126Z,100232.00
2018-10-01T05:23:12.704Z,100236.89
2018-10-01T05:25:40.186Z,100240.45
2018-10-01T05:28:07.949Z,100235.69
2018-10-01T05:30:35.838Z,100237.94
2018-10-01T05:33:03.344Z,100244.53
2018-10-01T05:35:30.848Z,100240.70
2018-10-01T05:37:58.565Z,100245.48
2018-10-01T05:40:25.989Z,100243.27
2018-10-01T05:42:53.517Z,100240.63
2018-10-01T05:45:21.184Z,100240.58
2018-10-01T05:47:48.634Z,100250.64
2018-10-01T05:50:16.167Z,100253.69
2018-10-01T05:52:44.112Z,100251.89
2018-10-01T05:55:11.593Z,100255.79
2018-10-01T05:57:39.210Z,100258.84
2018-10-01T06:00:07.139Z,100255.22
2018-10-01T06:02:34.644Z,100255.61
2018-10-01T06:05:02.220Z,100256.42
2018-10-01T06:07:29.983Z,100262.50
2018-10-01T06:09:57.468Z,100267.65
2018-10-01T06:12:25.342Z,100268.48
2018-10-01T06:14:53.137Z,100275.44
2018-10-01T06:17:20.654Z,100272.27
2018-10-01T06:19:48.202Z,100271.69
2018-10-01T06:22:15.760Z,100280.80
2018-10-01T06:24:43.314Z,100277.66
2018-10-01T06:27:10.892Z,100278.45
2018-10-01T06:29:38.520Z,100288.02
2018-10-01T06:32:06.015Z,100291.91
2018-10-01T06:34:33.599Z,100299.31
2018-10-01T06:37:01.139Z,100304.53
2018-10-01T06:39:43.181Z,100302.16
2018-10-01T06:42:10.979Z,100308.18
2018-10-01T06:44:38.394Z,100311.08
2018-10-01T06:47:06.088Z,100322.77
2018-10-01T06:49:33.798Z,100323.52
2018-10-01T06:52:01.341Z,100320.30
2018-10-01T06:54:28.864Z,100314.48
2018-10-01T06:56:56.585Z,100320.12
2018-10-01T06:59:24.314Z,100319.51
2018-10-01T07:01:51.837Z,100315.36
2018-10-01T07:04:19.762Z,100323.09
2018-10-01T07:06:47.298Z,100329.05
2018-10-01T07:09:14.804Z,100337.20
2018-10-01T07:11:42.706Z,100339.17
2018-10-01T07:14:10.296Z,100337.66
2018-10-01T07:16:37.868Z,100338.27
2018-10-01T07:19:05.814Z,100338.01
2018-10-01T07:21:33.368Z,100346.13
2018-10-01T07:24:00.877Z,100332.20
2018-10-01T07:26:28.703Z,100331.94
2018-10-01T07:28:56.609Z,100346.01
2018-10-01T07:31:24.169Z,100337.68
2018-10-01T07:33:52.041Z,100339.88
2018-10-01T07:36:19.553Z,100331.55
2018-10-01T07:38:47.060Z,100341.16
2018-10-01T07:41:14.848Z,100333.32
2018-10-01T07:43:42.495Z,100335.09
2018-10-01T07:46:10.112Z,100340.03
2018-10-01T07:48:37.852Z,100338.67
2018-10-01T07:51:05.226Z,100330.78
2018-10-01T07:53:32.732Z,100344.49
2018-10-01T07:56:00.554Z,100346.33
2018-10-01T07:58:28.066Z,100332.34
2018-10-01T08:00:55.584Z,100337.20
2018-10-01T08:03:23.284Z,100338.16
2018-10-01T08:05:50.852Z,100344.86
2018-10-01T08:08:18.420Z,100337.86
2018-10-01T08:10:46.029Z,100345.91
2018-10-01T08:13:13.606Z,100345.09
2018-10-01T08:15:41.309Z,100338.61
2018-10-01T08:18:09.099Z,100335.58
2018-10-01T08:20:36.617Z,100343.63
2018-10-01T08:23:04.153Z,100335.30
2018-10-01T08:25:36.701Z,100337.94
2018-10-01T08:28:04.283Z,100329.52
2018-10-01T08:30:32.081Z,100332.10
2018-10-01T08:32:59.759Z,100328.55
2018-10-01T08:35:27.249Z,100324.59
2018-10-01T08:37:54.862Z,100323.23
2018-10-01T08:40:22.676Z,100325.39
2018-10-01T08:42:50.239Z,100329.84
2018-10-01T08:45:17.744Z,100324.20
2018-10-01T08:47:45.709Z,100324.23
2018-10-01T08:51:22.245Z,100325.64
2018-10-01T08:54:00.182Z,100330.53
2018-10-01T08:56:27.668Z,100339.03
2018-10-01T08:58:55.252Z,100338.81
2018-10-01T09:01:23.095Z,100340.09
2018-10-01T09:03:50.613Z,100344.42
2018-10-01T09:06:18.105Z,100346.11
2018-10-01T09:08:45.804Z,100354.72
2018-10-01T09:11:13.405Z,100357.22
2018-10-01T09:13:40.880Z,100363.84
2018-10-01T09:16:08.917Z,100368.63
2018-10-01T09:18:36.405Z,100365.35
2018-10-01T09:21:03.997Z,100369.09
2018-10-01T09:23:31.746Z,100364.97
2018-10-01T09:26:00.361Z,100351.27
2018-10-01T09:28:27.852Z,100368.92
2018-10-01T09:30:55.686Z,100369.62
2018-10-01T09:33:23.280Z,100371.08
2018-10-01T09:35:50.788Z,100374.88
2018-10-01T09:38:18.578Z,100368.44
2018-10-01T09:40:46.090Z,100367.73
2018-10-01T09:43:13.536Z,100369.42
2018-10-01T09:45:41.205Z,100366.17
2018-10-01T09:48:08.919Z,100364.59
2018-10-01T09:50:36.356Z,100369.98
2018-10-01T09:53:04.060Z,100372.27
2018-10-01T09:55:31.568Z,100373.34
2018-10-01T09:57:59.090Z,100371.38
2018-10-01T10:00:32.160Z,100363.69
2018-10-01T10:03:00.313Z,100364.07
2018-10-01T10:05:27.827Z,100362.64
2018-10-01T10:07:55.423Z,100363.59
2018-10-01T10:10:23.343Z,100367.13
2018-10-01T10:12:50.803Z,100377.81
2018-10-01T10:15:18.296Z,100375.61
2018-10-01T10:17:46.596Z,100373.17
2018-10-01T10:20:14.170Z,100379.21
2018-10-01T10:22:42.146Z,100385.28
2018-10-01T10:25:09.922Z,100386.30
2018-10-01T10:27:37.515Z,100389.45
2018-10-01T10:30:05.766Z,100395.73
2018-10-01T10:32:33.840Z,100391.78
2018-10-01T10:35:01.347Z,100395.71
2018-10-01T10:37:28.914Z,100392.61
2018-10-01T10:39:56.526Z,100389.71
2018-10-01T10:42:24.101Z,100389.36
2018-10-01T10:44:51.590Z,100391.67
2018-10-01T10:47:19.374Z,100391.39
2018-10-01T10:49:46.906Z,100388.94
2018-10-01T10:52:14.411Z,100393.13
2018-10-01T10:54:42.063Z,100391.56
2018-10-01T10:57:09.591Z,100396.37
2018-10-01T10:59:37.148Z,100396.64
2018-10-01T11:02:04.875Z,100391.67
2018-10-01T11:04:32.424Z,100392.89
2018-10-01T11:06:59.971Z,100390.34
2018-10-01T11:09:27.532Z,100388.55
2018-10-01T11:11:54.961Z,100386.73
2018-10-01T11:14:22.535Z,100390.15
2018-10-01T11:16:50.134Z,100385.39
2018-10-01T11:19:18.179Z,100387.70
2018-10-01T11:21:45.718Z,100388.42
2018-10-01T11:24:13.235Z,100388.06
2018-10-01T11:26:40.758Z,100392.05
2018-10-01T11:29:08.241Z,100384.97
2018-10-01T11:31:35.890Z,100391.27
2018-10-01T11:34:03.430Z,100384.88
2018-10-01T11:36:30.966Z,100388.05
2018-10-01T11:38:58.716Z,100389.00
2018-10-01T11:41:26.277Z,100393.25
2018-10-01T11:43:53.741Z,100392.61
2018-10-01T11:46:21.455Z,100399.89
2018-10-01T11:48:48.946Z,100395.55
2018-10-01T11:51:16.492Z,100394.20
2018-10-01T11:53:44.232Z,100403.56
2018-10-01T11:56:11.690Z,100398.79
2018-10-01T11:58:39.198Z,100402.56
2018-10-01T12:01:06.913Z,100397.52
2018-10-01T12:03:34.483Z,100399.89
2018-10-01T12:06:01.961Z,100393.64
2018-10-01T12:08:29.584Z,100397.02
2018-10-01T12:10:57.141Z,100392.86
2018-10-01T12:13:24.587Z,100396.87
2018-10-01T12:15:52.421Z,100393.51
2018-10-01T12:18:19.840Z,100402.87
2018-10-01T12:20:47.566Z,100402.39
2018-10-01T12:23:15.332Z,100407.42
2018-10-01T12:25:42.910Z,100401.12
2018-10-01T12:28:10.340Z,100406.71
2018-10-01T12:30:37.957Z,100409.25
2018-10-01T12:33:05.617Z,100411.09
2018-10-01T12:35:33.049Z,100404.46
2018-10-01T12:38:00.663Z,100406.55
2018-10-01T12:40:28.286Z,100406.96
2018-10-01T12:42:55.811Z,100396.20
2018-10-01T12:45:23.636Z,100404.41
2018-10-01T12:47:51.302Z,100403.46
2018-10-01T12:50:18.935Z,100405.55
2018-10-01T12:52:46.496Z,100404.56
2018-10-01T12:55:13.985Z,100405.28
2018-10-01T12:57:41.533Z,100408.57
2018-10-01T13:00:09.387Z,100403.54
2018-10-01T13:02:36.892Z,100406.21
2018-10-01T13:05:04.629Z,100414.02
2018-10-01T13:07:32.249Z,100407.55
2018-10-01T13:09:59.776Z,100407.69
2018-10-01T13:12:27.390Z,100396.59
2018-10-01T13:14:55.254Z,100388.69
2018-10-01T13:17:22.776Z,100404.61
2018-10-01T13:19:50.311Z,100396.08
2018-10-01T13:22:18.133Z,100409.78
2018-10-01T13:24:45.745Z,100405.93
2018-10-01T13:27:13.239Z,100391.25
2018-10-01T13:29:40.876Z,100414.14
2018-10-01T13:32:08.449Z,100410.50
2018-10-01T13:34:35.941Z,100419.91
2018-10-01T13:37:03.613Z,100420.17
2018-10-01T13:39:31.056Z,100425.95
2018-10-01T13:41:58.608Z,100425.25
2018-10-01T13:44:26.386Z,100430.06
2018-10-01T13:46:53.824Z,100437.81
2018-10-01T13:49:21.309Z,100437.97
2018-10-01T13:51:49.111Z,100441.16
2018-10-01T13:54:16.679Z,100448.86
2018-10-01T13:56:44.152Z,100441.78
2018-10-01T13:59:11.922Z,100444.73
2018-10-01T14:01:39.494Z,100444.39
2018-10-01T14:04:06.958Z,100448.42
2018-10-01T14:06:34.593Z,100455.13
2018-10-01T14:09:02.426Z,100452.09
2018-10-01T14:11:29.920Z,100459.14
2018-10-01T14:13:57.662Z,100455.48
2018-10-01T14:16:25.059Z,100457.91
2018-10-01T14:18:52.583Z,100456.39
2018-10-01T14:21:20.365Z,100461.86
2018-10-01T14:23:48.233Z,100455.02
2018-10-01T14:26:15.666Z,100454.73
2018-10-01T14:28:43.387Z,100463.75
2018-10-01T14:31:10.917Z,100462.60
2018-10-01T14:33:38.433Z,100463.65
2018-10-01T14:36:06.168Z,100464.57
2018-10-01T14:38:33.647Z,100463.81
2018-10-01T14:41:01.119Z,100467.41
2018-10-01T14:43:28.832Z,100463.10
2018-10-01T14:45:56.250Z,100467.80
2018-10-01T14:48:23.747Z,100464.09
2018-10-01T14:50:51.507Z,100466.83
2018-10-01T14:53:18.962Z,100470.06
2018-10-01T14:55:46.438Z,100467.08
2018-10-01T14:58:14.068Z,100472.64
2018-10-01T15:00:41.707Z,100472.47
2018-10-01T15:03:09.141Z,100472.33
2018-10-01T15:05:36.896Z,100470.34
2018-10-01T15:08:04.459Z,100480.04
2018-10-01T15:10:31.929Z,100482.78
2018-10-01T15:12:59.618Z,100474.58
2018-10-01T15:15:27.314Z,100481.37
2018-10-01T15:17:54.798Z,100475.02
2018-10-01T15:20:22.468Z,100478.20
2018-10-01T15:22:49.947Z,100479.14
2018-10-01T15:25:17.708Z,100477.55
2018-10-01T15:27:45.461Z,100485.31
2018-10-01T15:30:13.125Z,100479.78
2018-10-01T15:32:40.644Z,100486.11
2018-10-01T15:35:08.433Z,100484.70
2018-10-01T15:37:35.936Z,100491.70
2018-10-01T15:40:03.497Z,100494.33
2018-10-01T15:42:31.209Z,100491.50
2018-10-01T15:44:58.681Z,100495.33
2018-10-01T15:47:26.155Z,100495.74
2018-10-01T15:49:53.997Z,100498.08
2018-10-01T15:52:21.410Z,100496.11
2018-10-01T15:54:48.850Z,100496.22
2018-10-01T15:57:16.618Z,100495.92
2018-10-01T15:59:44.260Z,100498.55
2018-10-01T16:02:11.757Z,100502.86
2018-10-01T16:04:39.281Z,100507.55
2018-10-01T16:07:06.873Z,100513.09
2018-10-01T16:09:34.712Z,100512.53
2018-10-01T16:12:02.305Z,100511.03
2018-10-01T16:14:29.857Z,100508.20
2018-10-01T16:16:57.285Z,100476.33
2018-10-01T16:19:25.138Z,100506.12
2018-10-01T16:21:52.619Z,100500.02
2018-10-01T16:24:20.078Z,100502.88
2018-10-01T16:26:47.756Z,100500.42
2018-10-01T16:29:15.232Z,100505.95
2018-10-01T16:31:42.869Z,100495.98
2018-10-01T16:34:10.587Z,100497.88
2018-10-01T16:36:38.156Z,100501.22
2018-10-01T16:39:08.038Z,100498.85
2018-10-01T16:41:35.576Z,100505.82
2018-10-01T16:44:03.107Z,100504.52
2018-10-01T16:46:30.617Z,100509.75
2018-10-01T16:48:58.403Z,100506.23
2018-10-01T16:51:25.879Z,100506.26
2018-10-01T16:53:53.394Z,100501.87
2018-10-01T16:56:20.930Z,100503.33
2018-10-01T16:58:48.404Z,100505.98
2018-10-01T17:01:15.924Z,100505.98
2018-10-01T17:03:43.723Z,100504.77
2018-10-01T17:06:11.261Z,100510.94
2018-10-01T17:08:38.734Z,100510.17
2018-10-01T17:11:06.341Z,100513.58
2018-10-01T17:13:33.937Z,100511.39
2018-10-01T17:16:01.402Z,100518.87
2018-10-01T17:18:28.891Z,100521.55
2018-10-01T17:20:56.362Z,100520.58
2018-10-01T17:23:23.848Z,100519.98
2018-10-01T17:25:51.386Z,100524.31
2018-10-01T17:28:19.063Z,100525.55
2018-10-01T17:30:46.590Z,100527.20
2018-10-01T17:33:14.030Z,100532.52
2018-10-01T17:35:41.604Z,100528.10
2018-10-01T17:38:09.090Z,100522.39
2018-10-01T17:40:36.824Z,100532.52
2018-10-01T17:43:04.331Z,100529.43
2018-10-01T17:45:31.795Z,100534.64
2018-10-01T17:47:59.860Z,100536.31
2018-10-01T17:50:27.448Z,100533.14
2018-10-01T17:52:54.869Z,100533.56
2018-10-01T17:55:22.455Z,100535.70
2018-10-01T17:57:49.916Z,100532.92
2018-10-01T18:00:17.507Z,100534.59
2018-10-01T18:02:45.361Z,100535.22
2018-10-01T18:05:12.858Z,100542.29
2018-10-01T18:07:40.606Z,100543.00
2018-10-01T18:10:08.553Z,100543.72
2018-10-01T18:12:36.137Z,100533.83
2018-10-01T18:15:03.776Z,100540.72
2018-10-01T18:17:31.397Z,100545.33
2018-10-01T18:19:58.902Z,100543.30
2018-10-01T18:22:26.377Z,100549.35
2018-10-01T18:24:53.955Z,100547.77
2018-10-01T18:27:21.410Z,100546.16
2018-10-01T18:29:49.132Z,100543.66
2018-10-01T18:32:16.932Z,100544.20
2018-10-01T18:34:44.433Z,100544.36
2018-10-01T18:37:12.143Z,100544.61
2018-10-01T18:39:46.413Z,100542.98
2018-10-01T18:42:13.979Z,100538.20
2018-10-01T18:44:41.452Z,100533.52
2018-10-01T18:47:09.044Z,100534.17
2018-10-01T18:49:36.526Z,100545.33
2018-10-01T18:52:03.982Z,100545.16
2018-10-01T18:54:31.638Z,100544.86
2018-10-01T18:56:59.175Z,100536.72
2018-10-01T18:59:26.689Z,100536.39
2018-10-01T19:01:54.279Z,100540.07
2018-10-01T19:04:21.824Z,100533.67
2018-10-01T19:06:49.343Z,100535.16
2018-10-01T19:09:16.930Z,100533.98
2018-10-01T19:11:44.417Z,100537.25
2018-10-01T19:14:11.950Z,100536.54
2018-10-01T19:16:39.429Z,100532.80
2018-10-01T19:19:06.986Z,100538.74
2018-10-01T19:21:34.678Z,100545.05
2018-10-01T19:24:02.394Z,100541.70
2018-10-01T19:26:29.865Z,100544.97
2018-10-01T19:28:57.357Z,100544.66
2018-10-01T19:31:25.085Z,100544.41
2018-10-01T19:33:52.849Z,100542.39
2018-10-01T19:36:20.452Z,100539.10
2018-10-01T19:38:47.995Z,100536.60
2018-10-01T19:41:15.451Z,100534.09
2018-10-01T19:43:42.965Z,100536.03
2018-10-01T19:46:10.417Z,100533.98
2018-10-01T19:48:38.135Z,100527.51
2018-10-01T19:51:05.938Z,100536.18
2018-10-01T19:53:34.359Z,100537.16
2018-10-01T19:56:01.906Z,100544.42
2018-10-01T19:58:29.379Z,100493.66
2018-10-01T20:00:56.917Z,100539.01
2018-10-01T20:03:24.412Z,100538.21
2018-10-01T20:05:51.951Z,100536.50
2018-10-01T20:08:19.594Z,100536.20
2018-10-01T20:10:47.133Z,100535.33
2018-10-01T20:13:14.737Z,100535.85
2018-10-01T20:15:42.406Z,100536.42
2018-10-01T20:18:09.884Z,100530.77
2018-10-01T20:20:37.391Z,100532.17
2018-10-01T20:23:05.088Z,100530.08
2018-10-01T20:25:32.641Z,100528.34
2018-10-01T20:28:00.221Z,100525.84
2018-10-01T20:30:27.673Z,100528.98
2018-10-01T20:32:55.389Z,100525.91
2018-10-01T20:35:22.954Z,100521.55
2018-10-01T20:37:50.533Z,100524.20
2018-10-01T20:40:18.029Z,100522.01
2018-10-01T20:42:45.505Z,100515.00
2018-10-01T20:45:13.369Z,100512.02
2018-10-01T20:47:41.013Z,100517.31
2018-10-01T20:50:08.526Z,100512.95
2018-10-01T20:52:36.266Z,100514.28
2018-10-01T20:55:03.787Z,100507.27
2018-10-01T20:57:31.284Z,100504.20
2018-10-01T21:02:33.062Z,100506.92
2018-10-01T21:05:00.644Z,100502.12
2018-10-01T21:07:28.116Z,100505.30
2018-10-01T21:10:02.478Z,100504.98
2018-10-01T21:12:29.981Z,100505.44
2018-10-01T21:14:57.473Z,100509.48
2018-10-01T21:17:25.066Z,100502.94
2018-10-01T21:19:52.621Z,100504.41
2018-10-01T21:22:20.184Z,100508.91
2018-10-01T21:24:47.915Z,100510.30
2018-10-01T21:27:15.424Z,100511.70
2018-10-01T21:29:43.042Z,100506.47
2018-10-01T21:32:10.841Z,100509.12
2018-10-01T21:34:38.424Z,100508.73
2018-10-01T21:37:05.845Z,100508.80
2018-10-01T21:40:12.574Z,100509.75
2018-10-01T21:42:40.215Z,100501.95
2018-10-01T21:45:08.340Z,100501.08
2018-10-01T21:47:36.024Z,100504.66
2018-10-01T21:50:03.694Z,100509.62
2018-10-01T21:52:31.445Z,100508.75
2018-10-01T21:54:59.347Z,100510.07
2018-10-01T21:57:26.932Z,100513.59
2018-10-01T21:59:54.492Z,100513.59
2018-10-01T22:02:22.145Z,100501.29
2018-10-01T22:04:49.666Z,100505.72
2018-10-01T22:07:17.603Z,100505.72
2018-10-01T22:09:45.552Z,100503.06
2018-10-01T22:12:13.317Z,100499.55
2018-10-01T22:14:40.881Z,100510.14
2018-10-01T22:17:08.498Z,100509.23
2018-10-01T22:19:35.991Z,100506.09
2018-10-01T22:22:03.613Z,100510.94
2018-10-01T22:24:31.193Z,100505.50
2018-10-01T22:26:58.722Z,100505.05
2018-10-01T22:29:26.509Z,100505.50
2018-10-01T22:31:54.083Z,100453.37
2018-10-01T22:34:21.754Z,100504.98
2018-10-01T22:36:49.737Z,100495.18
2018-10-01T22:39:17.468Z,100495.11
2018-10-01T22:41:45.292Z,100501.59
2018-10-01T22:44:12.814Z,100502.35
2018-10-01T22:46:40.408Z,100499.18
2018-10-01T22:49:08.046Z,100503.01
2018-10-01T22:51:35.545Z,100497.56
2018-10-01T22:54:03.227Z,100491.25
2018-10-01T22:56:30.972Z,100493.75
2018-10-01T22:58:58.522Z,100490.12
2018-10-01T23:01:25.541Z,100488.65
2018-10-01T23:03:52.397Z,100486.31
2018-10-01T23:06:19.237Z,100489.75
2018-10-01T23:08:46.245Z,100493.97
2018-10-01T23:11:13.118Z,100489.00
2018-10-01T23:13:40.611Z,100489.69
2018-10-01T23:16:08.257Z,100488.71
2018-10-01T23:18:35.725Z,100486.89
2018-10-01T23:21:03.211Z,100485.49
2018-10-01T23:23:30.782Z,100480.12
2018-10-01T23:25:58.289Z,100475.69
2018-10-01T23:28:25.790Z,100479.52
2018-10-01T23:30:53.393Z,100474.59
2018-10-01T23:33:20.907Z,100476.26
2018-10-01T23:35:48.415Z,100473.98
2018-10-01T23:38:16.513Z,100468.61
2018-10-01T23:40:44.147Z,100476.86
2018-10-01T23:43:11.644Z,100470.23
2018-10-01T23:45:39.552Z,100468.91
2018-10-01T23:48:07.551Z,100471.98
2018-10-01T23:50:35.077Z,100467.55
2018-10-01T23:53:02.913Z,100459.03
2018-10-01T23:55:30.457Z,100460.27
2018-10-01T23:57:57.411Z,100465.42
